La Porsche — VY9305 — position and weather

sailwx.info

Track history (hours):
 
Tides and Currents Weather Stations Pressure Air Temp Water Temp Dewpoint Dewpoint Depression Visibility Wind Speed Wind Dir Waves Ship Positions

La Porsche

Last reported at 2018-May-20 08:34 UTC. Time now 2018-May-27 08:07 UTC.
Position N 51°50' W 130°37'.

Length 22 m; draft 3 m.

Type: Fishing. MMSI: 316001649.

Date/timePositionNaut miles runAvg speedWind from/ knotsBaromVisibWave heightAir tempDewpointWater temp
2018-May-20 08:34N 51°50' W 130°37'0 6.4
2018-May-20 08:30N 51°50' W 130°37'1 0.1
2018-May-19 15:14N 51°50' W 130°39'1 0.3
2018-May-19 11:41N 51°49' W 130°37'2 6.3
2018-May-19 11:26N 51°48' W 130°39'55 5.8
2018-May-19 01:57N 51°06' W 129°41'1 0.6
2018-May-19 00:50N 51°06' W 129°41'0 0.5
2018-May-19 00:16N 51°05' W 129°41'0 0.0
2018-May-19 00:00N 51°05' W 129°41'1 1.1
2018-May-18 22:51N 51°05' W 129°39'0 0.4
2018-May-18 22:11N 51°05' W 129°39'0 0.8
2018-May-18 21:47N 51°05' W 129°39'1 1.1
2018-May-18 21:16N 51°06' W 129°38'0 0.4
2018-May-18 20:43N 51°06' W 129°38'1 2.3
2018-May-18 20:23N 51°06' W 129°37'3 0.3
2018-May-18 11:11N 51°05' W 129°41'0 0.2
2018-May-18 11:00N 51°05' W 129°41'0 0.2
2018-May-18 10:30N 51°05' W 129°41'0 0.1
2018-May-18 09:59N 51°05' W 129°41'0 0.2
2018-May-18 09:29N 51°05' W 129°41'0 0.3
2018-May-18 08:52N 51°05' W 129°41'0 0.4
2018-May-18 08:10N 51°06' W 129°41'0 0.6
2018-May-18 08:00N 51°06' W 129°41'0 0.6
2018-May-18 07:23N 51°06' W 129°41'71 1.4
2018-May-16 05:08N 50°18' W 128°20'0 2.2
2018-May-16 04:59N 50°17' W 128°20'0 0.5
2018-May-16 04:28N 50°18' W 128°20'0 0.6
2018-May-16 04:01N 50°18' W 128°20'0 0.4
2018-May-16 03:31N 50°18' W 128°20'0 0.2
2018-May-16 03:00N 50°18' W 128°20'3 0.9
2018-May-15 23:46N 50°21' W 128°21'1 3.1
2018-May-15 23:20N 50°20' W 128°20'1 0.1
2018-May-15 11:49N 50°19' W 128°19'2 7.4
2018-May-15 11:30N 50°17' W 128°22'1 0.3
2018-May-15 07:54N 50°17' W 128°23'1 0.8
2018-May-15 06:19N 50°19' W 128°23'2 6.1
2018-May-15 06:00N 50°17' W 128°21'3 6.1
2018-May-15 05:30N 50°15' W 128°18'27 1.3
2018-May-14 08:28N 50°35' W 128°47'6 7.7
2018-May-14 07:44N 50°38' W 128°54'2 7.8
2018-May-14 07:30N 50°40' W 128°56'6 8.0
2018-May-14 06:49N 50°43' W 129°02'2 8.0
2018-May-14 06:30N 50°45' W 129°05'4 7.8
2018-May-14 06:00N 50°47' W 129°10'35 7.7
2018-May-14 01:28N 51°13' W 129°48'1 3.1
2018-May-14 01:00N 51°14' W 129°49'0 0.3
2018-May-14 00:30N 51°14' W 129°49'1 1.2
2018-May-14 00:00N 51°13' W 129°49'0 0.9
2018-May-13 23:30N 51°13' W 129°49'1 1.0
2018-May-13 23:00N 51°13' W 129°49'1 2.5
2018-May-13 22:30N 51°14' W 129°49'3 4.4
2018-May-13 21:45N 51°11' W 129°46'0 0.2
2018-May-13 21:30N 51°11' W 129°46'0 0.5
2018-May-13 20:53N 51°11' W 129°46'0 1.0
2018-May-13 20:29N 51°11' W 129°46'3 2.3
2018-May-13 19:15N 51°11' W 129°51'2 0.4
2018-May-13 14:16N 51°13' W 129°51'3 1.8
2018-May-13 12:25N 51°12' W 129°47'7 4.4
2018-May-13 10:55N 51°10' W 129°57'0 0.9
2018-May-13 10:22N 51°11' W 129°57'0 1.0
2018-May-13 10:00N 51°11' W 129°57'1 1.1
2018-May-13 09:31N 51°12' W 129°56'1 1.1
2018-May-13 08:55N 51°12' W 129°56'1 1.3
2018-May-13 08:30N 51°13' W 129°56'1 1.4
2018-May-13 07:54N 51°14' W 129°56'1 1.5
2018-May-13 07:21N 51°15' W 129°56'1 1.5
2018-May-13 06:57N 51°15' W 129°56'0 0.8
2018-May-13 06:30N 51°15' W 129°57'4 3.4
2018-May-13 05:17N 51°14' W 129°51'2 3.2
2018-May-13 04:31N 51°15' W 129°47'0 1.7
2018-May-13 04:30N 51°15' W 129°47'1 1.0
2018-May-13 04:00N 51°15' W 129°46'1 0.5
2018-May-13 02:39N 51°15' W 129°46'1 4.8
2018-May-13 02:30N 51°15' W 129°47'2 0.1
2018-May-12 11:39N 51°17' W 129°48'1 6.7
2018-May-12 11:29N 51°17' W 129°49'1 1.1
2018-May-12 10:56N 51°17' W 129°50'0 0.6
2018-May-12 10:30N 51°17' W 129°51'0 0.6
2018-May-12 09:58N 51°17' W 129°51'8 6.7
2018-May-12 08:44N 51°23' W 130°00'3 8.0
2018-May-12 08:21N 51°25' W 130°04'4 7.9
2018-May-12 07:51N 51°28' W 130°08'3 7.8
2018-May-12 07:28N 51°30' W 130°12'14 7.7
2018-May-12 05:37N 51°40' W 130°28'1 7.7
2018-May-12 05:29N 51°41' W 130°29'56 1.3
2018-May-10 11:18N 51°20' W 129°06'2 7.9
2018-May-10 10:59N 51°19' W 129°03'4 7.6
2018-May-10 10:30N 51°17' W 128°57'3 6.8
2018-May-10 10:00N 51°16' W 128°53'4 7.5
2018-May-10 09:30N 51°14' W 128°47'4 7.7
2018-May-10 09:00N 51°12' W 128°42'  
Track history (hours):
 
Tides and Currents Weather Stations Pressure Air Temp Water Temp Dewpoint Dewpoint Depression Visibility Wind Speed Wind Dir Waves Ship Positions

La Porsche

Last reported at 2018-May-20 08:34 UTC. Time now 2018-May-27 08:07 UTC.
Position N 51°50' W 130°37'.

Length 22 m; draft 3 m.

Type: Fishing. MMSI: 316001649.

Date/timePositionNaut miles runAvg speedWind from/ knotsBaromVisibWave heightAir tempDewpointWater temp
2018-May-20 08:34N 51°50' W 130°37'0 6.4
2018-May-20 08:30N 51°50' W 130°37'1 0.1
2018-May-19 15:14N 51°50' W 130°39'1 0.3
2018-May-19 11:41N 51°49' W 130°37'2 6.3
2018-May-19 11:26N 51°48' W 130°39'55 5.8
2018-May-19 01:57N 51°06' W 129°41'1 0.6
2018-May-19 00:50N 51°06' W 129°41'0 0.5
2018-May-19 00:16N 51°05' W 129°41'0 0.0
2018-May-19 00:00N 51°05' W 129°41'1 1.1
2018-May-18 22:51N 51°05' W 129°39'0 0.4
2018-May-18 22:11N 51°05' W 129°39'0 0.8
2018-May-18 21:47N 51°05' W 129°39'1 1.1
2018-May-18 21:16N 51°06' W 129°38'0 0.4
2018-May-18 20:43N 51°06' W 129°38'1 2.3
2018-May-18 20:23N 51°06' W 129°37'3 0.3
2018-May-18 11:11N 51°05' W 129°41'0 0.2
2018-May-18 11:00N 51°05' W 129°41'0 0.2
2018-May-18 10:30N 51°05' W 129°41'0 0.1
2018-May-18 09:59N 51°05' W 129°41'0 0.2
2018-May-18 09:29N 51°05' W 129°41'0 0.3
2018-May-18 08:52N 51°05' W 129°41'0 0.4
2018-May-18 08:10N 51°06' W 129°41'0 0.6
2018-May-18 08:00N 51°06' W 129°41'0 0.6
2018-May-18 07:23N 51°06' W 129°41'71 1.4
2018-May-16 05:08N 50°18' W 128°20'0 2.2
2018-May-16 04:59N 50°17' W 128°20'0 0.5
2018-May-16 04:28N 50°18' W 128°20'0 0.6
2018-May-16 04:01N 50°18' W 128°20'0 0.4
2018-May-16 03:31N 50°18' W 128°20'0 0.2
2018-May-16 03:00N 50°18' W 128°20'3 0.9
2018-May-15 23:46N 50°21' W 128°21'1 3.1
2018-May-15 23:20N 50°20' W 128°20'1 0.1
2018-May-15 11:49N 50°19' W 128°19'2 7.4
2018-May-15 11:30N 50°17' W 128°22'1 0.3
2018-May-15 07:54N 50°17' W 128°23'1 0.8
2018-May-15 06:19N 50°19' W 128°23'2 6.1
2018-May-15 06:00N 50°17' W 128°21'3 6.1
2018-May-15 05:30N 50°15' W 128°18'27 1.3
2018-May-14 08:28N 50°35' W 128°47'6 7.7
2018-May-14 07:44N 50°38' W 128°54'2 7.8
2018-May-14 07:30N 50°40' W 128°56'6 8.0
2018-May-14 06:49N 50°43' W 129°02'2 8.0
2018-May-14 06:30N 50°45' W 129°05'4 7.8
2018-May-14 06:00N 50°47' W 129°10'35 7.7
2018-May-14 01:28N 51°13' W 129°48'1 3.1
2018-May-14 01:00N 51°14' W 129°49'0 0.3
2018-May-14 00:30N 51°14' W 129°49'1 1.2
2018-May-14 00:00N 51°13' W 129°49'0 0.9
2018-May-13 23:30N 51°13' W 129°49'1 1.0
2018-May-13 23:00N 51°13' W 129°49'1 2.5
2018-May-13 22:30N 51°14' W 129°49'3 4.4
2018-May-13 21:45N 51°11' W 129°46'0 0.2
2018-May-13 21:30N 51°11' W 129°46'0 0.5
2018-May-13 20:53N 51°11' W 129°46'0 1.0
2018-May-13 20:29N 51°11' W 129°46'3 2.3
2018-May-13 19:15N 51°11' W 129°51'2 0.4
2018-May-13 14:16N 51°13' W 129°51'3 1.8
2018-May-13 12:25N 51°12' W 129°47'7 4.4
2018-May-13 10:55N 51°10' W 129°57'0 0.9
2018-May-13 10:22N 51°11' W 129°57'0 1.0
2018-May-13 10:00N 51°11' W 129°57'1 1.1
2018-May-13 09:31N 51°12' W 129°56'1 1.1
2018-May-13 08:55N 51°12' W 129°56'1 1.3
2018-May-13 08:30N 51°13' W 129°56'1 1.4
2018-May-13 07:54N 51°14' W 129°56'1 1.5
2018-May-13 07:21N 51°15' W 129°56'1 1.5
2018-May-13 06:57N 51°15' W 129°56'0 0.8
2018-May-13 06:30N 51°15' W 129°57'4 3.4
2018-May-13 05:17N 51°14' W 129°51'2 3.2
2018-May-13 04:31N 51°15' W 129°47'0 1.7
2018-May-13 04:30N 51°15' W 129°47'1 1.0
2018-May-13 04:00N 51°15' W 129°46'1 0.5
2018-May-13 02:39N 51°15' W 129°46'1 4.8
2018-May-13 02:30N 51°15' W 129°47'2 0.1
2018-May-12 11:39N 51°17' W 129°48'1 6.7
2018-May-12 11:29N 51°17' W 129°49'1 1.1
2018-May-12 10:56N 51°17' W 129°50'0 0.6
2018-May-12 10:30N 51°17' W 129°51'0 0.6
2018-May-12 09:58N 51°17' W 129°51'8 6.7
2018-May-12 08:44N 51°23' W 130°00'3 8.0
2018-May-12 08:21N 51°25' W 130°04'4 7.9
2018-May-12 07:51N 51°28' W 130°08'3 7.8
2018-May-12 07:28N 51°30' W 130°12'14 7.7
2018-May-12 05:37N 51°40' W 130°28'1 7.7
2018-May-12 05:29N 51°41' W 130°29'56 1.3
2018-May-10 11:18N 51°20' W 129°06'2 7.9
2018-May-10 10:59N 51°19' W 129°03'4 7.6
2018-May-10 10:30N 51°17' W 128°57'3 6.8
2018-May-10 10:00N 51°16' W 128°53'4 7.5
2018-May-10 09:30N 51°14' W 128°47'4 7.7
2018-May-10 09:00N 51°12' W 128°42'  

Dump ship's entire track history